Terminal Aerodrome Forecast
Issued by NWS

Home | Current Version | Previous Version | Text Only | Print | Product List | Glossary On
Versions: 1 2 3 4 5 6 7 8 9 10 11 12 13 14 15
000
FTUS43 KIND 312300
TAFHUF
TAF
KHUF 312327Z 0100/0124 20006KT P6SM SCT025 OVC050
      TEMPO 0100/0103 4SM -RASN BKN025 OVC050
     FM010500 14005KT P6SM SCT025 OVC050
     FM011300 12008KT 3SM -RASN BR BKN015 OVC040
     FM011600 12010KT 2SM -RASN BR BKN007 OVC015
     FM012200 15005KT 3/4SM -RASN BR OVC004=

USA.gov is the U.S. government's official web portal to all federal, state and local government web resources and services.